sensor_id;sensor_type;location;lat;lon;timestamp;noise_LAeq;noise_LA_min;noise_LA_max;noise_LA01;noise_LA95
46746;Laerm;32493;50.514;9.678;2022-10-17T00:01:16;33.43;32.03;40.02;;
46746;Laerm;32493;50.514;9.678;2022-10-17T00:03:21;33.19;31.73;34.19;;
46746;Laerm;32493;50.514;9.678;2022-10-17T00:05:29;33.16;32.00;34.32;;
46746;Laerm;32493;50.514;9.678;2022-10-17T00:07:35;33.27;32.13;34.30;;
46746;Laerm;32493;50.514;9.678;2022-10-17T00:09:41;33.36;32.02;34.39;;
46746;Laerm;32493;50.514;9.678;2022-10-17T00:11:47;33.24;32.07;34.29;;
46746;Laerm;32493;50.514;9.678;2022-10-17T00:13:54;33.17;31.87;34.34;;
46746;Laerm;32493;50.514;9.678;2022-10-17T00:16:00;33.29;32.14;34.32;;
46746;Laerm;32493;50.514;9.678;2022-10-17T00:18:05;33.39;32.06;34.50;;
46746;Laerm;32493;50.514;9.678;2022-10-17T00:20:11;33.42;32.09;34.45;;
46746;Laerm;32493;50.514;9.678;2022-10-17T00:22:19;33.43;32.11;34.67;;
46746;Laerm;32493;50.514;9.678;2022-10-17T00:24:24;33.48;32.22;34.73;;
46746;Laerm;32493;50.514;9.678;2022-10-17T00:26:30;33.49;32.13;34.69;;
46746;Laerm;32493;50.514;9.678;2022-10-17T00:28:36;33.63;32.50;34.81;;
46746;Laerm;32493;50.514;9.678;2022-10-17T00:30:41;33.72;32.39;34.80;;
46746;Laerm;32493;50.514;9.678;2022-10-17T00:32:46;33.52;32.30;34.80;;
46746;Laerm;32493;50.514;9.678;2022-10-17T00:34:51;33.32;32.02;34.65;;
46746;Laerm;32493;50.514;9.678;2022-10-17T00:36:57;33.32;32.01;41.20;;
46746;Laerm;32493;50.514;9.678;2022-10-17T00:39:04;33.33;32.01;43.70;;
46746;Laerm;32493;50.514;9.678;2022-10-17T00:41:13;33.49;32.06;40.33;;
46746;Laerm;32493;50.514;9.678;2022-10-17T00:43:19;33.37;31.95;39.72;;
46746;Laerm;32493;50.514;9.678;2022-10-17T00:45:29;33.85;32.31;43.23;;
46746;Laerm;32493;50.514;9.678;2022-10-17T00:47:40;34.18;32.18;43.43;;
46746;Laerm;32493;50.514;9.678;2022-10-17T00:49:54;33.52;32.33;34.63;;
46746;Laerm;32493;50.514;9.678;2022-10-17T00:52:08;33.57;32.34;34.80;;
46746;Laerm;32493;50.514;9.678;2022-10-17T00:54:23;33.70;32.49;39.84;;
46746;Laerm;32493;50.514;9.678;2022-10-17T00:56:37;33.71;32.07;41.55;;
46746;Laerm;32493;50.514;9.678;2022-10-17T00:59:00;33.54;32.03;39.82;;
46746;Laerm;32493;50.514;9.678;2022-10-17T01:01:19;33.53;32.23;42.28;;
46746;Laerm;32493;50.514;9.678;2022-10-17T01:03:27;33.29;31.98;38.76;;
46746;Laerm;32493;50.514;9.678;2022-10-17T01:05:32;33.39;32.05;36.65;;
46746;Laerm;32493;50.514;9.678;2022-10-17T01:07:39;34.07;32.26;39.72;;
46746;Laerm;32493;50.514;9.678;2022-10-17T01:09:48;33.76;32.34;38.45;;
46746;Laerm;32493;50.514;9.678;2022-10-17T01:12:01;33.90;32.35;40.33;;
46746;Laerm;32493;50.514;9.678;2022-10-17T01:14:18;33.68;32.40;35.55;;
46746;Laerm;32493;50.514;9.678;2022-10-17T01:16:38;33.86;32.35;37.25;;
46746;Laerm;32493;50.514;9.678;2022-10-17T01:19:00;33.55;32.21;36.19;;
46746;Laerm;32493;50.514;9.678;2022-10-17T01:21:42;33.41;31.99;38.19;;
46746;Laerm;32493;50.514;9.678;2022-10-17T01:27:09;33.75;32.01;40.02;;
46746;Laerm;32493;50.514;9.678;2022-10-17T01:29:34;33.72;32.29;39.41;;
46746;Laerm;32493;50.514;9.678;2022-10-17T01:31:49;33.55;32.14;38.25;;
46746;Laerm;32493;50.514;9.678;2022-10-17T01:34:02;33.80;32.38;41.28;;
46746;Laerm;32493;50.514;9.678;2022-10-17T01:36:16;33.68;32.36;39.20;;
46746;Laerm;32493;50.514;9.678;2022-10-17T01:38:31;33.72;32.11;39.55;;
46746;Laerm;32493;50.514;9.678;2022-10-17T01:40:44;33.43;32.13;38.96;;
46746;Laerm;32493;50.514;9.678;2022-10-17T01:42:56;33.63;32.06;38.85;;
46746;Laerm;32493;50.514;9.678;2022-10-17T01:45:09;33.89;32.46;39.64;;
46746;Laerm;32493;50.514;9.678;2022-10-17T01:47:24;34.32;32.42;41.75;;
46746;Laerm;32493;50.514;9.678;2022-10-17T01:49:33;33.46;32.16;37.80;;
46746;Laerm;32493;50.514;9.678;2022-10-17T01:51:44;33.61;32.37;35.50;;
46746;Laerm;32493;50.514;9.678;2022-10-17T01:53:54;33.45;32.16;36.72;;
46746;Laerm;32493;50.514;9.678;2022-10-17T01:56:03;33.44;32.15;36.51;;
46746;Laerm;32493;50.514;9.678;2022-10-17T01:58:15;33.69;32.32;36.68;;
46746;Laerm;32493;50.514;9.678;2022-10-17T02:00:26;33.87;32.36;39.11;;
46746;Laerm;32493;50.514;9.678;2022-10-17T02:02:35;34.26;32.13;39.75;;
46746;Laerm;32493;50.514;9.678;2022-10-17T02:04:41;34.07;32.55;40.49;;
46746;Laerm;32493;50.514;9.678;2022-10-17T02:06:46;33.98;32.56;38.68;;
46746;Laerm;32493;50.514;9.678;2022-10-17T02:08:51;34.60;32.63;42.27;;
46746;Laerm;32493;50.514;9.678;2022-10-17T02:10:59;35.05;32.77;43.18;;
46746;Laerm;32493;50.514;9.678;2022-10-17T02:13:16;34.55;32.66;40.95;;
46746;Laerm;32493;50.514;9.678;2022-10-17T02:15:49;34.72;32.75;38.63;;
46746;Laerm;32493;50.514;9.678;2022-10-17T02:18:15;33.91;32.38;39.15;;
46746;Laerm;32493;50.514;9.678;2022-10-17T02:20:27;33.91;32.02;41.20;;
46746;Laerm;32493;50.514;9.678;2022-10-17T02:22:42;33.49;32.12;37.36;;
46746;Laerm;32493;50.514;9.678;2022-10-17T02:24:53;33.21;31.90;35.22;;
46746;Laerm;32493;50.514;9.678;2022-10-17T02:27:07;33.46;31.99;38.68;;
46746;Laerm;32493;50.514;9.678;2022-10-17T02:29:18;33.97;32.36;39.47;;
46746;Laerm;32493;50.514;9.678;2022-10-17T02:31:28;34.04;32.57;38.70;;
46746;Laerm;32493;50.514;9.678;2022-10-17T02:33:42;33.91;32.61;39.34;;
46746;Laerm;32493;50.514;9.678;2022-10-17T02:35:53;33.83;32.40;36.89;;
46746;Laerm;32493;50.514;9.678;2022-10-17T02:38:03;33.86;32.62;39.60;;
46746;Laerm;32493;50.514;9.678;2022-10-17T02:40:11;33.91;32.55;38.15;;
46746;Laerm;32493;50.514;9.678;2022-10-17T02:42:20;33.77;32.26;39.82;;
46746;Laerm;32493;50.514;9.678;2022-10-17T02:44:26;33.50;32.05;39.58;;
46746;Laerm;32493;50.514;9.678;2022-10-17T02:46:33;33.31;32.09;35.71;;
46746;Laerm;32493;50.514;9.678;2022-10-17T02:48:46;33.32;32.05;36.46;;
46746;Laerm;32493;50.514;9.678;2022-10-17T02:51:01;33.24;31.96;36.90;;
46746;Laerm;32493;50.514;9.678;2022-10-17T02:53:13;33.18;31.60;34.76;;
46746;Laerm;32493;50.514;9.678;2022-10-17T02:55:24;33.26;31.95;35.29;;
46746;Laerm;32493;50.514;9.678;2022-10-17T02:57:37;33.38;32.04;34.78;;
46746;Laerm;32493;50.514;9.678;2022-10-17T02:59:44;33.61;32.23;35.47;;
46746;Laerm;32493;50.514;9.678;2022-10-17T03:01:50;33.23;31.61;34.42;;
46746;Laerm;32493;50.514;9.678;2022-10-17T03:04:08;33.15;31.74;34.49;;
46746;Laerm;32493;50.514;9.678;2022-10-17T03:06:13;33.34;32.16;37.45;;
46746;Laerm;32493;50.514;9.678;2022-10-17T03:08:21;33.70;32.32;35.53;;
46746;Laerm;32493;50.514;9.678;2022-10-17T03:10:26;33.85;32.40;35.47;;
46746;Laerm;32493;50.514;9.678;2022-10-17T03:12:32;34.06;32.66;36.40;;
46746;Laerm;32493;50.514;9.678;2022-10-17T03:14:37;34.16;32.52;36.77;;
46746;Laerm;32493;50.514;9.678;2022-10-17T03:16:42;34.09;32.62;36.51;;
46746;Laerm;32493;50.514;9.678;2022-10-17T03:18:49;33.58;32.22;35.68;;
46746;Laerm;32493;50.514;9.678;2022-10-17T03:20:57;33.68;32.24;36.01;;
46746;Laerm;32493;50.514;9.678;2022-10-17T03:23:05;33.83;31.97;35.88;;
46746;Laerm;32493;50.514;9.678;2022-10-17T03:25:12;33.17;31.94;34.97;;
46746;Laerm;32493;50.514;9.678;2022-10-17T03:27:18;33.10;31.89;34.37;;
46746;Laerm;32493;50.514;9.678;2022-10-17T03:29:23;33.10;31.84;34.23;;
46746;Laerm;32493;50.514;9.678;2022-10-17T03:31:29;33.10;31.94;34.97;;
46746;Laerm;32493;50.514;9.678;2022-10-17T03:33:35;33.07;31.88;34.55;;
46746;Laerm;32493;50.514;9.678;2022-10-17T03:35:41;33.16;31.74;34.24;;
46746;Laerm;32493;50.514;9.678;2022-10-17T03:37:50;33.29;31.91;36.97;;
46746;Laerm;32493;50.514;9.678;2022-10-17T03:39:58;33.23;31.97;38.31;;
46746;Laerm;32493;50.514;9.678;2022-10-17T03:42:04;33.22;31.81;35.69;;
46746;Laerm;32493;50.514;9.678;2022-10-17T03:44:09;33.45;32.09;38.51;;
46746;Laerm;32493;50.514;9.678;2022-10-17T03:46:14;34.89;32.75;43.35;;
46746;Laerm;32493;50.514;9.678;2022-10-17T03:48:40;34.10;32.40;39.39;;
46746;Laerm;32493;50.514;9.678;2022-10-17T03:50:45;34.19;32.61;42.26;;
46746;Laerm;32493;50.514;9.678;2022-10-17T03:52:54;34.56;32.73;41.66;;
46746;Laerm;32493;50.514;9.678;2022-10-17T03:54:59;34.86;32.49;40.88;;
46746;Laerm;32493;50.514;9.678;2022-10-17T03:57:04;34.33;32.57;41.24;;
46746;Laerm;32493;50.514;9.678;2022-10-17T03:59:12;34.06;32.24;40.58;;
46746;Laerm;32493;50.514;9.678;2022-10-17T04:01:24;33.65;32.22;38.58;;
46746;Laerm;32493;50.514;9.678;2022-10-17T04:03:30;33.61;32.24;37.26;;
46746;Laerm;32493;50.514;9.678;2022-10-17T04:05:36;33.30;32.09;37.50;;
46746;Laerm;32493;50.514;9.678;2022-10-17T04:07:41;33.48;32.19;37.74;;
46746;Laerm;32493;50.514;9.678;2022-10-17T04:09:50;33.31;32.04;38.94;;
46746;Laerm;32493;50.514;9.678;2022-10-17T04:11:56;33.01;31.74;35.65;;
46746;Laerm;32493;50.514;9.678;2022-10-17T04:14:02;33.30;31.65;40.33;;
46746;Laerm;32493;50.514;9.678;2022-10-17T04:16:11;34.38;32.41;40.84;;
46746;Laerm;32493;50.514;9.678;2022-10-17T04:18:26;34.77;32.45;41.36;;
46746;Laerm;32493;50.514;9.678;2022-10-17T04:20:33;33.64;31.96;39.31;;
46746;Laerm;32493;50.514;9.678;2022-10-17T04:22:39;33.23;32.12;36.37;;
46746;Laerm;32493;50.514;9.678;2022-10-17T04:24:45;32.95;31.83;34.24;;
46746;Laerm;32493;50.514;9.678;2022-10-17T04:27:11;33.05;31.91;34.23;;
46746;Laerm;32493;50.514;9.678;2022-10-17T04:29:19;33.05;31.77;34.40;;
46746;Laerm;32493;50.514;9.678;2022-10-17T04:31:27;32.83;31.65;37.63;;
46746;Laerm;32493;50.514;9.678;2022-10-17T04:33:40;32.74;31.58;35.66;;
46746;Laerm;32493;50.514;9.678;2022-10-17T04:35:55;32.87;31.55;34.49;;
46746;Laerm;32493;50.514;9.678;2022-10-17T04:38:01;32.70;31.53;40.07;;
46746;Laerm;32493;50.514;9.678;2022-10-17T04:40:08;32.58;31.34;35.02;;
46746;Laerm;32493;50.514;9.678;2022-10-17T04:42:16;32.81;31.74;33.90;;
46746;Laerm;32493;50.514;9.678;2022-10-17T04:44:23;32.83;31.73;35.42;;
46746;Laerm;32493;50.514;9.678;2022-10-17T04:46:33;32.77;31.59;33.83;;
46746;Laerm;32493;50.514;9.678;2022-10-17T04:48:39;32.81;31.68;34.00;;
46746;Laerm;32493;50.514;9.678;2022-10-17T04:50:52;32.66;31.41;33.77;;
46746;Laerm;32493;50.514;9.678;2022-10-17T04:53:10;32.66;31.47;33.78;;
46746;Laerm;32493;50.514;9.678;2022-10-17T04:55:15;32.82;31.62;33.86;;
46746;Laerm;32493;50.514;9.678;2022-10-17T04:57:23;32.75;31.39;33.91;;
46746;Laerm;32493;50.514;9.678;2022-10-17T04:59:45;32.59;31.26;33.88;;
46746;Laerm;32493;50.514;9.678;2022-10-17T05:02:11;32.60;31.35;33.81;;
46746;Laerm;32493;50.514;9.678;2022-10-17T05:04:16;32.86;31.32;56.11;;
46746;Laerm;32493;50.514;9.678;2022-10-17T05:06:27;32.60;31.38;35.16;;
46746;Laerm;32493;50.514;9.678;2022-10-17T05:08:57;32.57;31.15;49.75;;
46746;Laerm;32493;50.514;9.678;2022-10-17T05:11:15;32.54;31.47;34.01;;
46746;Laerm;32493;50.514;9.678;2022-10-17T05:13:29;32.56;31.09;33.86;;
46746;Laerm;32493;50.514;9.678;2022-10-17T05:15:36;32.59;31.46;33.66;;
46746;Laerm;32493;50.514;9.678;2022-10-17T05:17:41;32.60;31.38;33.85;;
46746;Laerm;32493;50.514;9.678;2022-10-17T05:19:47;32.54;31.32;33.66;;
46746;Laerm;32493;50.514;9.678;2022-10-17T05:21:52;32.65;31.36;33.87;;
46746;Laerm;32493;50.514;9.678;2022-10-17T05:23:59;32.66;31.52;33.77;;
46746;Laerm;32493;50.514;9.678;2022-10-17T05:26:06;32.67;31.58;33.77;;
46746;Laerm;32493;50.514;9.678;2022-10-17T05:28:11;32.62;31.36;33.84;;
46746;Laerm;32493;50.514;9.678;2022-10-17T05:30:20;32.67;31.38;33.75;;
46746;Laerm;32493;50.514;9.678;2022-10-17T05:32:33;32.64;31.47;33.84;;
46746;Laerm;32493;50.514;9.678;2022-10-17T05:34:38;32.55;31.28;34.58;;
46746;Laerm;32493;50.514;9.678;2022-10-17T05:36:43;32.47;31.36;33.60;;
46746;Laerm;32493;50.514;9.678;2022-10-17T05:38:53;32.50;31.21;33.65;;
46746;Laerm;32493;50.514;9.678;2022-10-17T05:41:04;32.54;31.42;34.66;;
46746;Laerm;32493;50.514;9.678;2022-10-17T05:43:09;32.57;31.16;33.67;;
46746;Laerm;32493;50.514;9.678;2022-10-17T05:45:23;32.59;31.35;33.91;;
46746;Laerm;32493;50.514;9.678;2022-10-17T05:47:28;32.59;31.43;33.74;;
46746;Laerm;32493;50.514;9.678;2022-10-17T05:49:34;32.67;31.36;33.80;;
46746;Laerm;32493;50.514;9.678;2022-10-17T05:51:54;32.64;31.48;33.90;;
46746;Laerm;32493;50.514;9.678;2022-10-17T05:54:00;32.71;31.61;33.96;;
46746;Laerm;32493;50.514;9.678;2022-10-17T05:56:08;32.63;31.47;33.97;;
46746;Laerm;32493;50.514;9.678;2022-10-17T05:58:13;32.64;31.08;33.81;;
46746;Laerm;32493;50.514;9.678;2022-10-17T06:00:34;32.65;31.39;33.74;;
46746;Laerm;32493;50.514;9.678;2022-10-17T06:02:41;32.68;31.45;34.02;;
46746;Laerm;32493;50.514;9.678;2022-10-17T06:04:49;32.65;31.39;33.84;;
46746;Laerm;32493;50.514;9.678;2022-10-17T06:06:56;32.67;31.45;33.99;;
46746;Laerm;32493;50.514;9.678;2022-10-17T06:09:02;32.73;31.68;33.84;;
46746;Laerm;32493;50.514;9.678;2022-10-17T06:11:12;32.73;31.55;33.90;;
46746;Laerm;32493;50.514;9.678;2022-10-17T06:13:17;32.80;31.65;34.16;;
46746;Laerm;32493;50.514;9.678;2022-10-17T06:15:25;32.87;31.68;34.41;;
46746;Laerm;32493;50.514;9.678;2022-10-17T06:17:40;32.95;31.53;34.35;;
46746;Laerm;32493;50.514;9.678;2022-10-17T06:19:54;32.89;31.68;33.97;;
46746;Laerm;32493;50.514;9.678;2022-10-17T06:22:01;32.91;31.68;35.80;;
46746;Laerm;32493;50.514;9.678;2022-10-17T06:24:10;32.93;31.69;34.80;;
46746;Laerm;32493;50.514;9.678;2022-10-17T06:26:23;33.38;31.56;38.75;;
46746;Laerm;32493;50.514;9.678;2022-10-17T06:28:36;33.81;31.81;38.76;;
46746;Laerm;32493;50.514;9.678;2022-10-17T06:31:06;33.43;31.54;36.26;;
46746;Laerm;32493;50.514;9.678;2022-10-17T06:33:17;33.62;32.05;37.84;;
46746;Laerm;32493;50.514;9.678;2022-10-17T06:35:33;33.06;31.67;37.52;;
46746;Laerm;32493;50.514;9.678;2022-10-17T06:37:48;33.41;32.04;35.16;;
46746;Laerm;32493;50.514;9.678;2022-10-17T06:39:56;33.46;31.65;35.26;;
46746;Laerm;32493;50.514;9.678;2022-10-17T06:42:06;33.59;32.15;35.65;;
46746;Laerm;32493;50.514;9.678;2022-10-17T06:44:23;33.77;32.02;36.76;;
46746;Laerm;32493;50.514;9.678;2022-10-17T06:46:50;33.66;32.10;37.69;;
46746;Laerm;32493;50.514;9.678;2022-10-17T06:48:59;33.34;31.58;35.72;;
46746;Laerm;32493;50.514;9.678;2022-10-17T06:51:29;33.71;31.75;37.81;;
46746;Laerm;32493;50.514;9.678;2022-10-17T06:53:36;33.99;32.34;35.83;;
46746;Laerm;32493;50.514;9.678;2022-10-17T06:55:44;33.81;32.06;36.17;;
46746;Laerm;32493;50.514;9.678;2022-10-17T06:57:59;33.83;31.90;36.60;;
46746;Laerm;32493;50.514;9.678;2022-10-17T07:00:23;33.80;32.08;37.69;;
46746;Laerm;32493;50.514;9.678;2022-10-17T07:02:31;33.69;32.30;35.56;;
46746;Laerm;32493;50.514;9.678;2022-10-17T07:04:39;33.19;32.07;35.21;;
46746;Laerm;32493;50.514;9.678;2022-10-17T07:06:46;33.13;31.83;34.40;;
46746;Laerm;32493;50.514;9.678;2022-10-17T07:08:55;33.15;31.80;34.45;;
46746;Laerm;32493;50.514;9.678;2022-10-17T07:11:08;33.15;31.64;34.75;;
46746;Laerm;32493;50.514;9.678;2022-10-17T07:13:14;32.86;31.06;34.55;;
46746;Laerm;32493;50.514;9.678;2022-10-17T07:15:19;32.83;31.71;34.65;;
46746;Laerm;32493;50.514;9.678;2022-10-17T07:17:25;32.91;31.73;34.31;;
46746;Laerm;32493;50.514;9.678;2022-10-17T07:19:30;32.97;31.40;35.18;;
46746;Laerm;32493;50.514;9.678;2022-10-17T07:21:38;32.94;31.71;34.41;;
46746;Laerm;32493;50.514;9.678;2022-10-17T07:23:46;33.01;31.62;34.33;;
46746;Laerm;32493;50.514;9.678;2022-10-17T07:25:52;32.96;31.73;34.34;;
46746;Laerm;32493;50.514;9.678;2022-10-17T07:27:57;32.96;31.56;34.78;;
46746;Laerm;32493;50.514;9.678;2022-10-17T07:30:05;32.96;31.67;35.10;;
46746;Laerm;32493;50.514;9.678;2022-10-17T07:32:13;32.88;31.55;35.61;;
46746;Laerm;32493;50.514;9.678;2022-10-17T07:34:19;33.00;31.55;35.60;;
46746;Laerm;32493;50.514;9.678;2022-10-17T07:36:28;33.11;31.76;38.35;;
46746;Laerm;32493;50.514;9.678;2022-10-17T07:38:39;33.04;31.51;39.39;;
46746;Laerm;32493;50.514;9.678;2022-10-17T07:40:52;32.79;31.29;37.43;;
46746;Laerm;32493;50.514;9.678;2022-10-17T07:42:57;32.95;31.57;36.21;;
46746;Laerm;32493;50.514;9.678;2022-10-17T07:45:04;32.90;31.60;34.90;;
46746;Laerm;32493;50.514;9.678;2022-10-17T07:47:11;32.98;31.51;35.52;;
46746;Laerm;32493;50.514;9.678;2022-10-17T07:49:16;32.96;31.57;35.64;;
46746;Laerm;32493;50.514;9.678;2022-10-17T07:51:22;32.79;31.51;34.79;;
46746;Laerm;32493;50.514;9.678;2022-10-17T07:53:27;32.68;31.46;36.05;;
46746;Laerm;32493;50.514;9.678;2022-10-17T07:55:36;32.70;31.42;34.01;;
46746;Laerm;32493;50.514;9.678;2022-10-17T07:57:41;32.88;31.73;34.22;;
46746;Laerm;32493;50.514;9.678;2022-10-17T07:59:46;33.00;31.73;34.45;;
46746;Laerm;32493;50.514;9.678;2022-10-17T08:01:54;33.19;31.97;35.54;;
46746;Laerm;32493;50.514;9.678;2022-10-17T08:04:01;33.07;31.35;35.00;;
46746;Laerm;32493;50.514;9.678;2022-10-17T08:06:06;32.98;31.55;35.01;;
46746;Laerm;32493;50.514;9.678;2022-10-17T08:08:12;33.21;31.74;36.19;;
46746;Laerm;32493;50.514;9.678;2022-10-17T08:10:17;33.32;32.01;36.52;;
46746;Laerm;32493;50.514;9.678;2022-10-17T08:12:25;33.35;31.89;35.30;;
46746;Laerm;32493;50.514;9.678;2022-10-17T08:14:34;33.58;32.39;35.83;;
46746;Laerm;32493;50.514;9.678;2022-10-17T08:16:41;33.83;32.28;36.97;;
46746;Laerm;32493;50.514;9.678;2022-10-17T08:18:46;33.72;32.14;37.94;;
46746;Laerm;32493;50.514;9.678;2022-10-17T08:20:51;34.01;32.56;37.67;;
46746;Laerm;32493;50.514;9.678;2022-10-17T08:23:01;33.97;32.46;37.15;;
46746;Laerm;32493;50.514;9.678;2022-10-17T08:25:08;34.13;32.27;38.44;;
46746;Laerm;32493;50.514;9.678;2022-10-17T08:27:13;34.39;32.52;39.59;;
46746;Laerm;32493;50.514;9.678;2022-10-17T08:29:27;34.32;32.93;38.58;;
46746;Laerm;32493;50.514;9.678;2022-10-17T08:31:33;34.28;32.85;39.96;;
46746;Laerm;32493;50.514;9.678;2022-10-17T08:33:40;34.49;33.00;39.09;;
46746;Laerm;32493;50.514;9.678;2022-10-17T08:35:45;34.55;33.01;38.29;;
46746;Laerm;32493;50.514;9.678;2022-10-17T08:37:51;34.82;33.34;39.34;;
46746;Laerm;32493;50.514;9.678;2022-10-17T08:39:56;34.53;33.17;37.28;;
46746;Laerm;32493;50.514;9.678;2022-10-17T08:42:21;34.52;33.11;36.10;;
46746;Laerm;32493;50.514;9.678;2022-10-17T08:44:49;34.78;33.28;41.90;;
46746;Laerm;32493;50.514;9.678;2022-10-17T08:47:06;34.90;33.10;40.47;;
46746;Laerm;32493;50.514;9.678;2022-10-17T08:49:19;36.16;33.95;42.85;;
46746;Laerm;32493;50.514;9.678;2022-10-17T08:51:31;36.02;34.16;40.42;;
46746;Laerm;32493;50.514;9.678;2022-10-17T08:53:42;35.27;33.80;39.56;;
46746;Laerm;32493;50.514;9.678;2022-10-17T08:55:51;35.25;33.96;37.60;;
46746;Laerm;32493;50.514;9.678;2022-10-17T08:57:56;35.16;33.85;38.30;;
46746;Laerm;32493;50.514;9.678;2022-10-17T09:00:16;35.12;33.79;36.80;;
46746;Laerm;32493;50.514;9.678;2022-10-17T09:02:40;35.06;33.76;41.42;;
46746;Laerm;32493;50.514;9.678;2022-10-17T09:05:05;33.82;32.03;35.88;;
46746;Laerm;32493;50.514;9.678;2022-10-17T09:07:21;33.86;32.20;36.54;;
46746;Laerm;32493;50.514;9.678;2022-10-17T09:09:35;34.26;32.59;40.60;;
46746;Laerm;32493;50.514;9.678;2022-10-17T09:11:55;34.17;32.81;37.21;;
46746;Laerm;32493;50.514;9.678;2022-10-17T09:14:29;34.33;32.62;37.44;;
46746;Laerm;32493;50.514;9.678;2022-10-17T09:16:57;34.29;32.43;39.04;;
46746;Laerm;32493;50.514;9.678;2022-10-17T09:19:16;33.98;32.26;40.34;;
46746;Laerm;32493;50.514;9.678;2022-10-17T09:21:34;33.38;31.74;37.55;;
46746;Laerm;32493;50.514;9.678;2022-10-17T09:23:44;33.91;32.02;39.17;;
46746;Laerm;32493;50.514;9.678;2022-10-17T09:25:53;33.81;32.31;36.55;;
46746;Laerm;32493;50.514;9.678;2022-10-17T09:28:10;33.67;32.05;36.74;;
46746;Laerm;32493;50.514;9.678;2022-10-17T09:30:29;33.64;32.01;37.81;;
46746;Laerm;32493;50.514;9.678;2022-10-17T09:32:54;33.68;32.24;37.93;;
46746;Laerm;32493;50.514;9.678;2022-10-17T09:34:59;33.64;32.26;37.09;;
46746;Laerm;32493;50.514;9.678;2022-10-17T09:37:13;33.73;32.31;40.31;;
46746;Laerm;32493;50.514;9.678;2022-10-17T09:39:23;33.59;31.84;37.36;;
46746;Laerm;32493;50.514;9.678;2022-10-17T09:41:36;33.43;31.84;37.74;;
46746;Laerm;32493;50.514;9.678;2022-10-17T09:43:51;33.58;32.20;36.60;;
46746;Laerm;32493;50.514;9.678;2022-10-17T09:46:07;33.67;32.06;37.81;;
46746;Laerm;32493;50.514;9.678;2022-10-17T09:48:25;33.54;32.13;35.75;;
46746;Laerm;32493;50.514;9.678;2022-10-17T09:50:32;33.51;32.06;36.61;;
46746;Laerm;32493;50.514;9.678;2022-10-17T09:52:40;33.55;32.05;36.88;;
46746;Laerm;32493;50.514;9.678;2022-10-17T09:54:51;33.51;31.96;35.72;;
46746;Laerm;32493;50.514;9.678;2022-10-17T09:56:59;33.35;31.96;36.91;;
46746;Laerm;32493;50.514;9.678;2022-10-17T09:59:05;33.30;31.49;36.91;;
46746;Laerm;32493;50.514;9.678;2022-10-17T10:01:19;33.62;31.85;37.64;;
46746;Laerm;32493;50.514;9.678;2022-10-17T10:03:28;33.46;31.84;37.64;;
46746;Laerm;32493;50.514;9.678;2022-10-17T10:05:34;33.54;31.94;38.52;;
46746;Laerm;32493;50.514;9.678;2022-10-17T10:07:41;33.57;31.50;37.02;;
46746;Laerm;32493;50.514;9.678;2022-10-17T10:09:48;34.20;31.66;37.50;;
46746;Laerm;32493;50.514;9.678;2022-10-17T10:11:56;33.94;32.24;37.23;;
46746;Laerm;32493;50.514;9.678;2022-10-17T10:14:14;34.49;32.58;38.71;;
46746;Laerm;32493;50.514;9.678;2022-10-17T10:16:31;34.63;32.76;39.48;;
46746;Laerm;32493;50.514;9.678;2022-10-17T10:18:40;34.42;32.53;36.91;;
46746;Laerm;32493;50.514;9.678;2022-10-17T10:21:06;33.76;32.12;35.87;;
46746;Laerm;32493;50.514;9.678;2022-10-17T10:23:15;33.56;31.86;35.50;;
46746;Laerm;32493;50.514;9.678;2022-10-17T10:25:24;34.05;31.71;37.05;;
46746;Laerm;32493;50.514;9.678;2022-10-17T10:27:29;34.02;32.04;38.38;;
46746;Laerm;32493;50.514;9.678;2022-10-17T10:29:54;34.13;31.68;38.49;;
46746;Laerm;32493;50.514;9.678;2022-10-17T10:32:08;33.28;31.11;40.82;;
46746;Laerm;32493;50.514;9.678;2022-10-17T10:34:23;31.82;30.23;33.37;;
46746;Laerm;32493;50.514;9.678;2022-10-17T10:36:48;31.29;29.94;32.59;;
46746;Laerm;32493;50.514;9.678;2022-10-17T10:38:56;31.36;29.81;32.58;;
46746;Laerm;32493;50.514;9.678;2022-10-17T10:41:08;31.16;29.83;32.46;;
46746;Laerm;32493;50.514;9.678;2022-10-17T10:43:26;31.13;29.76;32.49;;
46746;Laerm;32493;50.514;9.678;2022-10-17T10:45:41;31.34;29.74;32.71;;
46746;Laerm;32493;50.514;9.678;2022-10-17T10:47:53;31.42;30.09;32.62;;
46746;Laerm;32493;50.514;9.678;2022-10-17T10:50:23;31.44;30.02;32.77;;
46746;Laerm;32493;50.514;9.678;2022-10-17T10:52:34;31.29;29.75;32.57;;
46746;Laerm;32493;50.514;9.678;2022-10-17T10:54:52;31.26;29.90;32.52;;
46746;Laerm;32493;50.514;9.678;2022-10-17T10:57:01;31.32;29.91;32.64;;
46746;Laerm;32493;50.514;9.678;2022-10-17T10:59:14;31.24;29.69;32.60;;
46746;Laerm;32493;50.514;9.678;2022-10-17T11:01:28;31.19;29.90;32.37;;
46746;Laerm;32493;50.514;9.678;2022-10-17T11:03:40;31.27;29.96;32.40;;
46746;Laerm;32493;50.514;9.678;2022-10-17T11:05:54;31.00;29.69;32.61;;
46746;Laerm;32493;50.514;9.678;2022-10-17T11:08:12;31.09;29.63;32.39;;
46746;Laerm;32493;50.514;9.678;2022-10-17T11:10:25;31.27;29.83;32.62;;
46746;Laerm;32493;50.514;9.678;2022-10-17T11:12:42;31.05;29.58;32.47;;
46746;Laerm;32493;50.514;9.678;2022-10-17T11:14:55;30.94;29.53;32.24;;
46746;Laerm;32493;50.514;9.678;2022-10-17T11:17:07;31.14;29.72;32.40;;
46746;Laerm;32493;50.514;9.678;2022-10-17T11:19:23;31.15;29.72;32.51;;
46746;Laerm;32493;50.514;9.678;2022-10-17T11:21:44;30.69;29.24;31.95;;
46746;Laerm;32493;50.514;9.678;2022-10-17T11:23:58;30.62;29.17;31.88;;
46746;Laerm;32493;50.514;9.678;2022-10-17T11:26:18;30.60;29.16;32.16;;
46746;Laerm;32493;50.514;9.678;2022-10-17T11:28:29;30.71;29.14;37.25;;
46746;Laerm;32493;50.514;9.678;2022-10-17T11:30:45;30.38;29.06;31.61;;
46746;Laerm;32493;50.514;9.678;2022-10-17T11:32:55;30.45;29.10;32.01;;
46746;Laerm;32493;50.514;9.678;2022-10-17T11:35:08;30.31;28.68;31.70;;
46746;Laerm;32493;50.514;9.678;2022-10-17T11:37:27;30.39;29.11;32.32;;
46746;Laerm;32493;50.514;9.678;2022-10-17T11:39:43;30.43;28.80;31.65;;
46746;Laerm;32493;50.514;9.678;2022-10-17T11:41:55;30.54;29.19;31.87;;
46746;Laerm;32493;50.514;9.678;2022-10-17T11:44:16;30.54;29.06;31.99;;
46746;Laerm;32493;50.514;9.678;2022-10-17T11:46:26;30.35;29.13;31.49;;
46746;Laerm;32493;50.514;9.678;2022-10-17T11:48:38;30.51;29.19;31.96;;
46746;Laerm;32493;50.514;9.678;2022-10-17T11:50:48;30.40;29.11;31.87;;
46746;Laerm;32493;50.514;9.678;2022-10-17T11:53:22;30.32;28.74;31.56;;
46746;Laerm;32493;50.514;9.678;2022-10-17T11:55:30;30.28;29.10;31.55;;
46746;Laerm;32493;50.514;9.678;2022-10-17T11:57:41;30.26;28.88;31.64;;
46746;Laerm;32493;50.514;9.678;2022-10-17T12:00:06;30.35;28.83;31.70;;
46746;Laerm;32493;50.514;9.678;2022-10-17T12:02:26;30.34;28.99;31.48;;
46746;Laerm;32493;50.514;9.678;2022-10-17T12:04:46;30.39;28.85;31.94;;
46746;Laerm;32493;50.514;9.678;2022-10-17T12:07:07;30.24;28.81;31.61;;
46746;Laerm;32493;50.514;9.678;2022-10-17T12:09:26;30.29;28.93;31.50;;
46746;Laerm;32493;50.514;9.678;2022-10-17T12:11:44;30.14;28.89;31.46;;
46746;Laerm;32493;50.514;9.678;2022-10-17T12:13:55;30.02;28.72;31.11;;
46746;Laerm;32493;50.514;9.678;2022-10-17T12:16:43;30.04;28.62;31.35;;
46746;Laerm;32493;50.514;9.678;2022-10-17T12:19:20;29.98;28.75;31.38;;